sensor_id;sensor_type;location;lat;lon;timestamp;P1;durP1;ratioP1;P2;durP2;ratioP2
7807;SDS011;3949;49.254;8.894;2023-08-06T00:01:45;3.90;;;3.60;;
7807;SDS011;3949;49.254;8.894;2023-08-06T00:04:11;3.70;;;3.40;;
7807;SDS011;3949;49.254;8.894;2023-08-06T00:06:37;3.30;;;3.10;;
7807;SDS011;3949;49.254;8.894;2023-08-06T00:09:03;3.87;;;3.53;;
7807;SDS011;3949;49.254;8.894;2023-08-06T00:11:29;3.53;;;3.23;;
7807;SDS011;3949;49.254;8.894;2023-08-06T00:13:55;3.63;;;3.33;;
7807;SDS011;3949;49.254;8.894;2023-08-06T00:16:21;3.33;;;3.03;;
7807;SDS011;3949;49.254;8.894;2023-08-06T00:18:47;3.80;;;3.40;;
7807;SDS011;3949;49.254;8.894;2023-08-06T00:21:15;3.90;;;3.43;;
7807;SDS011;3949;49.254;8.894;2023-08-06T00:23:41;4.10;;;3.60;;
7807;SDS011;3949;49.254;8.894;2023-08-06T00:26:07;4.47;;;3.73;;
7807;SDS011;3949;49.254;8.894;2023-08-06T00:28:33;3.90;;;3.60;;
7807;SDS011;3949;49.254;8.894;2023-08-06T00:30:59;3.90;;;3.50;;
7807;SDS011;3949;49.254;8.894;2023-08-06T00:33:25;5.13;;;4.20;;
7807;SDS011;3949;49.254;8.894;2023-08-06T00:35:53;4.70;;;4.20;;
7807;SDS011;3949;49.254;8.894;2023-08-06T00:38:19;4.67;;;4.27;;
7807;SDS011;3949;49.254;8.894;2023-08-06T00:40:45;5.10;;;4.60;;
7807;SDS011;3949;49.254;8.894;2023-08-06T00:43:11;4.40;;;4.00;;
7807;SDS011;3949;49.254;8.894;2023-08-06T00:45:37;5.07;;;4.67;;
7807;SDS011;3949;49.254;8.894;2023-08-06T00:48:03;5.20;;;4.70;;
7807;SDS011;3949;49.254;8.894;2023-08-06T00:50:31;4.60;;;4.20;;
7807;SDS011;3949;49.254;8.894;2023-08-06T00:52:59;4.83;;;4.17;;
7807;SDS011;3949;49.254;8.894;2023-08-06T00:55:25;4.77;;;4.23;;
7807;SDS011;3949;49.254;8.894;2023-08-06T00:57:51;4.23;;;3.93;;
7807;SDS011;3949;49.254;8.894;2023-08-06T01:00:21;4.67;;;4.27;;
7807;SDS011;3949;49.254;8.894;2023-08-06T01:02:48;5.10;;;4.60;;
7807;SDS011;3949;49.254;8.894;2023-08-06T01:05:14;4.73;;;4.23;;
7807;SDS011;3949;49.254;8.894;2023-08-06T01:10:19;5.00;;;4.40;;
7807;SDS011;3949;49.254;8.894;2023-08-06T01:15:18;4.60;;;4.20;;
7807;SDS011;3949;49.254;8.894;2023-08-06T01:17:46;4.10;;;3.80;;
7807;SDS011;3949;49.254;8.894;2023-08-06T01:20:13;4.80;;;4.33;;
7807;SDS011;3949;49.254;8.894;2023-08-06T01:22:39;4.27;;;3.87;;
7807;SDS011;3949;49.254;8.894;2023-08-06T01:25:05;4.40;;;4.00;;
7807;SDS011;3949;49.254;8.894;2023-08-06T01:27:49;4.43;;;3.97;;
7807;SDS011;3949;49.254;8.894;2023-08-06T01:30:16;4.50;;;4.10;;
7807;SDS011;3949;49.254;8.894;2023-08-06T01:32:44;4.27;;;3.87;;
7807;SDS011;3949;49.254;8.894;2023-08-06T01:35:11;4.30;;;4.00;;
7807;SDS011;3949;49.254;8.894;2023-08-06T01:37:38;4.80;;;3.83;;
7807;SDS011;3949;49.254;8.894;2023-08-06T01:40:10;3.93;;;3.60;;
7807;SDS011;3949;49.254;8.894;2023-08-06T01:42:39;4.13;;;3.53;;
7807;SDS011;3949;49.254;8.894;2023-08-06T01:45:08;4.03;;;3.63;;
7807;SDS011;3949;49.254;8.894;2023-08-06T01:47:35;3.93;;;3.53;;
7807;SDS011;3949;49.254;8.894;2023-08-06T01:50:01;3.67;;;3.37;;
7807;SDS011;3949;49.254;8.894;2023-08-06T01:52:27;3.67;;;3.37;;
7807;SDS011;3949;49.254;8.894;2023-08-06T01:54:53;4.03;;;3.70;;
7807;SDS011;3949;49.254;8.894;2023-08-06T01:57:19;4.07;;;3.53;;
7807;SDS011;3949;49.254;8.894;2023-08-06T01:59:45;3.77;;;3.47;;
7807;SDS011;3949;49.254;8.894;2023-08-06T02:02:11;3.70;;;3.40;;
7807;SDS011;3949;49.254;8.894;2023-08-06T02:04:37;4.13;;;3.67;;
7807;SDS011;3949;49.254;8.894;2023-08-06T02:07:03;4.37;;;3.43;;
7807;SDS011;3949;49.254;8.894;2023-08-06T02:09:32;3.40;;;3.13;;
7807;SDS011;3949;49.254;8.894;2023-08-06T02:11:58;3.60;;;3.20;;
7807;SDS011;3949;49.254;8.894;2023-08-06T02:14:24;3.87;;;3.50;;
7807;SDS011;3949;49.254;8.894;2023-08-06T02:16:50;4.00;;;3.17;;
7807;SDS011;3949;49.254;8.894;2023-08-06T02:19:16;3.40;;;3.10;;
7807;SDS011;3949;49.254;8.894;2023-08-06T02:21:42;3.23;;;2.93;;
7807;SDS011;3949;49.254;8.894;2023-08-06T02:24:08;3.83;;;3.27;;
7807;SDS011;3949;49.254;8.894;2023-08-06T02:26:34;3.23;;;3.03;;
7807;SDS011;3949;49.254;8.894;2023-08-06T02:29:00;3.20;;;2.90;;
7807;SDS011;3949;49.254;8.894;2023-08-06T02:31:26;3.17;;;2.87;;
7807;SDS011;3949;49.254;8.894;2023-08-06T02:33:52;3.10;;;2.80;;
7807;SDS011;3949;49.254;8.894;2023-08-06T02:36:19;3.33;;;3.03;;
7807;SDS011;3949;49.254;8.894;2023-08-06T02:38:45;3.47;;;3.17;;
7807;SDS011;3949;49.254;8.894;2023-08-06T02:41:10;4.07;;;3.10;;
7807;SDS011;3949;49.254;8.894;2023-08-06T02:43:36;4.07;;;2.93;;
7807;SDS011;3949;49.254;8.894;2023-08-06T02:46:02;3.50;;;3.13;;
7807;SDS011;3949;49.254;8.894;2023-08-06T02:48:31;3.27;;;3.07;;
7807;SDS011;3949;49.254;8.894;2023-08-06T02:50:57;3.47;;;3.17;;
7807;SDS011;3949;49.254;8.894;2023-08-06T02:53:29;3.27;;;2.90;;
7807;SDS011;3949;49.254;8.894;2023-08-06T02:55:57;2.97;;;2.73;;
7807;SDS011;3949;49.254;8.894;2023-08-06T02:58:23;2.77;;;2.53;;
7807;SDS011;3949;49.254;8.894;2023-08-06T03:01:03;3.33;;;2.50;;
7807;SDS011;3949;49.254;8.894;2023-08-06T03:03:30;2.67;;;2.40;;
7807;SDS011;3949;49.254;8.894;2023-08-06T03:05:57;2.43;;;2.23;;
7807;SDS011;3949;49.254;8.894;2023-08-06T03:08:23;3.40;;;2.40;;
7807;SDS011;3949;49.254;8.894;2023-08-06T03:10:49;2.60;;;2.40;;
7807;SDS011;3949;49.254;8.894;2023-08-06T03:13:19;3.70;;;2.23;;
7807;SDS011;3949;49.254;8.894;2023-08-06T03:15:53;2.20;;;1.87;;
7807;SDS011;3949;49.254;8.894;2023-08-06T03:18:20;2.20;;;2.00;;
7807;SDS011;3949;49.254;8.894;2023-08-06T03:20:46;2.63;;;2.30;;
7807;SDS011;3949;49.254;8.894;2023-08-06T03:23:12;2.63;;;1.90;;
7807;SDS011;3949;49.254;8.894;2023-08-06T03:25:38;2.67;;;2.17;;
7807;SDS011;3949;49.254;8.894;2023-08-06T03:28:04;3.03;;;2.73;;
7807;SDS011;3949;49.254;8.894;2023-08-06T03:30:32;3.90;;;2.30;;
7807;SDS011;3949;49.254;8.894;2023-08-06T03:32:58;3.93;;;2.30;;
7807;SDS011;3949;49.254;8.894;2023-08-06T03:35:24;3.03;;;2.27;;
7807;SDS011;3949;49.254;8.894;2023-08-06T03:37:50;3.90;;;2.30;;
7807;SDS011;3949;49.254;8.894;2023-08-06T03:40:16;4.70;;;2.43;;
7807;SDS011;3949;49.254;8.894;2023-08-06T03:42:42;2.37;;;1.80;;
7807;SDS011;3949;49.254;8.894;2023-08-06T03:45:08;3.83;;;2.50;;
7807;SDS011;3949;49.254;8.894;2023-08-06T03:47:34;3.10;;;2.20;;
7807;SDS011;3949;49.254;8.894;2023-08-06T03:50:00;4.23;;;2.20;;
7807;SDS011;3949;49.254;8.894;2023-08-06T03:52:26;3.97;;;2.53;;
7807;SDS011;3949;49.254;8.894;2023-08-06T03:54:52;3.90;;;2.10;;
7807;SDS011;3949;49.254;8.894;2023-08-06T03:57:18;4.00;;;2.23;;
7807;SDS011;3949;49.254;8.894;2023-08-06T03:59:44;3.03;;;2.03;;
7807;SDS011;3949;49.254;8.894;2023-08-06T04:02:10;2.90;;;2.13;;
7807;SDS011;3949;49.254;8.894;2023-08-06T04:04:36;2.90;;;2.00;;
7807;SDS011;3949;49.254;8.894;2023-08-06T04:07:02;2.37;;;1.80;;
7807;SDS011;3949;49.254;8.894;2023-08-06T04:09:28;2.10;;;1.90;;
7807;SDS011;3949;49.254;8.894;2023-08-06T04:11:54;3.13;;;2.07;;
7807;SDS011;3949;49.254;8.894;2023-08-06T04:14:21;2.53;;;1.67;;
7807;SDS011;3949;49.254;8.894;2023-08-06T04:16:47;3.13;;;1.90;;
7807;SDS011;3949;49.254;8.894;2023-08-06T04:19:15;1.90;;;1.50;;
7807;SDS011;3949;49.254;8.894;2023-08-06T04:21:41;4.10;;;1.53;;
7807;SDS011;3949;49.254;8.894;2023-08-06T04:24:07;3.20;;;1.53;;
7807;SDS011;3949;49.254;8.894;2023-08-06T04:26:33;2.10;;;1.40;;
7807;SDS011;3949;49.254;8.894;2023-08-06T04:28:59;3.30;;;1.70;;
7807;SDS011;3949;49.254;8.894;2023-08-06T04:31:25;3.17;;;1.97;;
7807;SDS011;3949;49.254;8.894;2023-08-06T04:33:51;2.47;;;1.47;;
7807;SDS011;3949;49.254;8.894;2023-08-06T04:36:19;3.30;;;1.80;;
7807;SDS011;3949;49.254;8.894;2023-08-06T04:38:45;2.43;;;1.63;;
7807;SDS011;3949;49.254;8.894;2023-08-06T04:41:14;2.63;;;1.50;;
7807;SDS011;3949;49.254;8.894;2023-08-06T04:43:40;2.93;;;1.67;;
7807;SDS011;3949;49.254;8.894;2023-08-06T04:46:06;3.73;;;1.67;;
7807;SDS011;3949;49.254;8.894;2023-08-06T04:48:32;3.70;;;1.60;;
7807;SDS011;3949;49.254;8.894;2023-08-06T04:50:58;5.10;;;2.33;;
7807;SDS011;3949;49.254;8.894;2023-08-06T04:53:24;2.67;;;1.50;;
7807;SDS011;3949;49.254;8.894;2023-08-06T04:55:50;1.80;;;1.57;;
7807;SDS011;3949;49.254;8.894;2023-08-06T04:58:16;2.60;;;1.80;;
7807;SDS011;3949;49.254;8.894;2023-08-06T05:00:42;2.60;;;1.60;;
7807;SDS011;3949;49.254;8.894;2023-08-06T05:03:08;3.17;;;1.83;;
7807;SDS011;3949;49.254;8.894;2023-08-06T05:05:34;2.27;;;1.40;;
7807;SDS011;3949;49.254;8.894;2023-08-06T05:08:00;3.00;;;1.50;;
7807;SDS011;3949;49.254;8.894;2023-08-06T05:10:26;4.23;;;1.67;;
7807;SDS011;3949;49.254;8.894;2023-08-06T05:12:52;3.93;;;1.60;;
7807;SDS011;3949;49.254;8.894;2023-08-06T05:15:18;3.10;;;1.70;;
7807;SDS011;3949;49.254;8.894;2023-08-06T05:17:47;2.87;;;1.73;;
7807;SDS011;3949;49.254;8.894;2023-08-06T05:20:13;3.67;;;2.00;;
7807;SDS011;3949;49.254;8.894;2023-08-06T05:22:39;2.13;;;1.53;;
7807;SDS011;3949;49.254;8.894;2023-08-06T05:25:05;4.30;;;1.80;;
7807;SDS011;3949;49.254;8.894;2023-08-06T05:27:31;3.20;;;1.50;;
7807;SDS011;3949;49.254;8.894;2023-08-06T05:29:57;4.13;;;1.80;;
7807;SDS011;3949;49.254;8.894;2023-08-06T05:32:23;3.30;;;1.60;;
7807;SDS011;3949;49.254;8.894;2023-08-06T05:34:51;2.77;;;1.43;;
7807;SDS011;3949;49.254;8.894;2023-08-06T05:37:17;2.77;;;1.67;;
7807;SDS011;3949;49.254;8.894;2023-08-06T05:39:43;2.63;;;1.57;;
7807;SDS011;3949;49.254;8.894;2023-08-06T05:42:09;2.43;;;1.30;;
7807;SDS011;3949;49.254;8.894;2023-08-06T05:44:35;6.47;;;2.17;;
7807;SDS011;3949;49.254;8.894;2023-08-06T05:47:01;3.40;;;1.80;;
7807;SDS011;3949;49.254;8.894;2023-08-06T05:49:27;3.13;;;1.63;;
7807;SDS011;3949;49.254;8.894;2023-08-06T05:51:53;4.90;;;1.40;;
7807;SDS011;3949;49.254;8.894;2023-08-06T05:54:19;2.83;;;1.40;;
7807;SDS011;3949;49.254;8.894;2023-08-06T05:56:45;2.53;;;1.20;;
7807;SDS011;3949;49.254;8.894;2023-08-06T05:59:11;2.03;;;1.20;;
7807;SDS011;3949;49.254;8.894;2023-08-06T06:01:37;2.83;;;1.30;;
7807;SDS011;3949;49.254;8.894;2023-08-06T06:04:03;4.50;;;1.27;;
7807;SDS011;3949;49.254;8.894;2023-08-06T06:06:29;2.67;;;1.10;;
7807;SDS011;3949;49.254;8.894;2023-08-06T06:08:55;2.13;;;0.80;;
7807;SDS011;3949;49.254;8.894;2023-08-06T06:11:21;2.67;;;1.20;;
7807;SDS011;3949;49.254;8.894;2023-08-06T06:13:50;1.77;;;1.33;;
7807;SDS011;3949;49.254;8.894;2023-08-06T06:16:17;1.03;;;1.00;;
7807;SDS011;3949;49.254;8.894;2023-08-06T06:18:45;1.77;;;1.13;;
7807;SDS011;3949;49.254;8.894;2023-08-06T06:21:11;1.00;;;0.90;;
7807;SDS011;3949;49.254;8.894;2023-08-06T06:23:40;2.73;;;1.27;;
7807;SDS011;3949;49.254;8.894;2023-08-06T06:26:06;1.27;;;1.17;;
7807;SDS011;3949;49.254;8.894;2023-08-06T06:28:32;1.83;;;1.00;;
7807;SDS011;3949;49.254;8.894;2023-08-06T06:31:01;2.87;;;1.10;;
7807;SDS011;3949;49.254;8.894;2023-08-06T06:33:27;2.33;;;1.43;;
7807;SDS011;3949;49.254;8.894;2023-08-06T06:35:53;1.90;;;1.40;;
7807;SDS011;3949;49.254;8.894;2023-08-06T06:38:19;1.40;;;1.17;;
7807;SDS011;3949;49.254;8.894;2023-08-06T06:40:53;2.80;;;1.27;;
7807;SDS011;3949;49.254;8.894;2023-08-06T06:43:21;1.63;;;1.17;;
7807;SDS011;3949;49.254;8.894;2023-08-06T06:45:47;1.60;;;1.13;;
7807;SDS011;3949;49.254;8.894;2023-08-06T06:48:17;1.47;;;1.13;;
7807;SDS011;3949;49.254;8.894;2023-08-06T06:50:46;1.27;;;1.17;;
7807;SDS011;3949;49.254;8.894;2023-08-06T06:53:13;1.30;;;1.00;;
7807;SDS011;3949;49.254;8.894;2023-08-06T06:55:41;2.90;;;1.50;;
7807;SDS011;3949;49.254;8.894;2023-08-06T06:58:07;1.47;;;1.10;;
7807;SDS011;3949;49.254;8.894;2023-08-06T07:00:35;1.70;;;0.83;;
7807;SDS011;3949;49.254;8.894;2023-08-06T07:03:01;1.13;;;0.97;;
7807;SDS011;3949;49.254;8.894;2023-08-06T07:05:27;1.83;;;0.97;;
7807;SDS011;3949;49.254;8.894;2023-08-06T07:07:53;1.60;;;1.27;;
7807;SDS011;3949;49.254;8.894;2023-08-06T07:10:19;1.27;;;1.13;;
7807;SDS011;3949;49.254;8.894;2023-08-06T07:12:45;1.13;;;1.00;;
7807;SDS011;3949;49.254;8.894;2023-08-06T07:15:11;0.97;;;0.80;;
7807;SDS011;3949;49.254;8.894;2023-08-06T07:17:37;3.40;;;1.00;;
7807;SDS011;3949;49.254;8.894;2023-08-06T07:20:03;0.73;;;0.73;;
7807;SDS011;3949;49.254;8.894;2023-08-06T07:22:29;0.80;;;0.80;;
7807;SDS011;3949;49.254;8.894;2023-08-06T07:24:55;1.30;;;0.83;;
7807;SDS011;3949;49.254;8.894;2023-08-06T07:27:21;1.40;;;0.87;;
7807;SDS011;3949;49.254;8.894;2023-08-06T07:29:47;1.87;;;0.77;;
7807;SDS011;3949;49.254;8.894;2023-08-06T07:32:13;1.43;;;0.70;;
7807;SDS011;3949;49.254;8.894;2023-08-06T07:34:39;1.30;;;0.80;;
7807;SDS011;3949;49.254;8.894;2023-08-06T07:37:05;1.70;;;0.70;;
7807;SDS011;3949;49.254;8.894;2023-08-06T07:39:33;1.53;;;0.63;;
7807;SDS011;3949;49.254;8.894;2023-08-06T07:41:59;1.07;;;0.40;;
7807;SDS011;3949;49.254;8.894;2023-08-06T07:44:27;0.60;;;0.60;;
7807;SDS011;3949;49.254;8.894;2023-08-06T07:46:53;0.50;;;0.50;;
7807;SDS011;3949;49.254;8.894;2023-08-06T07:49:19;0.40;;;0.40;;
7807;SDS011;3949;49.254;8.894;2023-08-06T07:51:45;0.50;;;0.50;;
7807;SDS011;3949;49.254;8.894;2023-08-06T07:54:13;1.40;;;0.43;;
7807;SDS011;3949;49.254;8.894;2023-08-06T07:56:39;0.70;;;0.70;;
7807;SDS011;3949;49.254;8.894;2023-08-06T07:59:05;2.37;;;0.83;;
7807;SDS011;3949;49.254;8.894;2023-08-06T08:01:31;0.60;;;0.60;;
7807;SDS011;3949;49.254;8.894;2023-08-06T08:03:57;1.17;;;0.53;;
7807;SDS011;3949;49.254;8.894;2023-08-06T08:06:24;0.57;;;0.57;;
7807;SDS011;3949;49.254;8.894;2023-08-06T08:08:50;1.43;;;0.50;;
7807;SDS011;3949;49.254;8.894;2023-08-06T08:11:16;0.73;;;0.60;;
7807;SDS011;3949;49.254;8.894;2023-08-06T08:13:43;0.67;;;0.67;;
7807;SDS011;3949;49.254;8.894;2023-08-06T08:16:09;1.53;;;0.50;;
7807;SDS011;3949;49.254;8.894;2023-08-06T08:18:35;0.93;;;0.40;;
7807;SDS011;3949;49.254;8.894;2023-08-06T08:21:01;0.83;;;0.50;;
7807;SDS011;3949;49.254;8.894;2023-08-06T08:23:27;0.40;;;0.40;;
7807;SDS011;3949;49.254;8.894;2023-08-06T08:25:53;0.53;;;0.53;;
7807;SDS011;3949;49.254;8.894;2023-08-06T08:28:22;1.77;;;0.60;;
7807;SDS011;3949;49.254;8.894;2023-08-06T08:30:48;0.47;;;0.47;;
7807;SDS011;3949;49.254;8.894;2023-08-06T08:33:14;1.00;;;0.50;;
7807;SDS011;3949;49.254;8.894;2023-08-06T08:35:40;0.93;;;0.50;;
7807;SDS011;3949;49.254;8.894;2023-08-06T08:38:08;0.80;;;0.40;;
7807;SDS011;3949;49.254;8.894;2023-08-06T08:40:34;0.40;;;0.40;;
7807;SDS011;3949;49.254;8.894;2023-08-06T08:43:01;0.50;;;0.50;;
7807;SDS011;3949;49.254;8.894;2023-08-06T08:45:28;0.87;;;0.67;;
7807;SDS011;3949;49.254;8.894;2023-08-06T08:47:54;0.87;;;0.47;;
7807;SDS011;3949;49.254;8.894;2023-08-06T08:50:21;0.80;;;0.40;;
7807;SDS011;3949;49.254;8.894;2023-08-06T08:52:47;0.50;;;0.40;;
7807;SDS011;3949;49.254;8.894;2023-08-06T08:55:15;0.23;;;0.23;;
7807;SDS011;3949;49.254;8.894;2023-08-06T08:57:41;0.53;;;0.37;;
7807;SDS011;3949;49.254;8.894;2023-08-06T09:00:07;0.60;;;0.50;;
7807;SDS011;3949;49.254;8.894;2023-08-06T09:02:34;0.40;;;0.30;;
7807;SDS011;3949;49.254;8.894;2023-08-06T09:05:02;1.03;;;0.47;;
7807;SDS011;3949;49.254;8.894;2023-08-06T09:07:38;0.20;;;0.20;;
7807;SDS011;3949;49.254;8.894;2023-08-06T09:10:10;0.63;;;0.30;;
7807;SDS011;3949;49.254;8.894;2023-08-06T09:12:37;0.10;;;0.10;;
7807;SDS011;3949;49.254;8.894;2023-08-06T09:15:03;0.83;;;0.83;;
7807;SDS011;3949;49.254;8.894;2023-08-06T09:17:29;0.67;;;0.50;;
7807;SDS011;3949;49.254;8.894;2023-08-06T09:19:55;0.50;;;0.50;;
7807;SDS011;3949;49.254;8.894;2023-08-06T09:22:21;0.37;;;0.20;;
7807;SDS011;3949;49.254;8.894;2023-08-06T09:24:47;0.23;;;0.23;;
7807;SDS011;3949;49.254;8.894;2023-08-06T09:27:14;0.10;;;0.10;;
7807;SDS011;3949;49.254;8.894;2023-08-06T09:29:43;0.40;;;0.37;;
7807;SDS011;3949;49.254;8.894;2023-08-06T09:32:10;0.30;;;0.30;;
7807;SDS011;3949;49.254;8.894;2023-08-06T09:34:38;0.30;;;0.30;;
7807;SDS011;3949;49.254;8.894;2023-08-06T09:37:04;1.23;;;0.50;;
7807;SDS011;3949;49.254;8.894;2023-08-06T09:39:30;1.30;;;0.70;;
7807;SDS011;3949;49.254;8.894;2023-08-06T09:41:57;0.30;;;0.30;;
7807;SDS011;3949;49.254;8.894;2023-08-06T09:44:24;1.17;;;1.17;;
7807;SDS011;3949;49.254;8.894;2023-08-06T09:46:51;1.43;;;0.60;;
7807;SDS011;3949;49.254;8.894;2023-08-06T09:49:59;0.43;;;0.43;;
7807;SDS011;3949;49.254;8.894;2023-08-06T09:52:10;0.80;;;0.50;;
7807;SDS011;3949;49.254;8.894;2023-08-06T09:54:37;0.67;;;0.50;;
7807;SDS011;3949;49.254;8.894;2023-08-06T09:57:03;0.40;;;0.40;;
7807;SDS011;3949;49.254;8.894;2023-08-06T09:59:29;0.57;;;0.33;;
7807;SDS011;3949;49.254;8.894;2023-08-06T10:01:56;0.67;;;0.40;;
7807;SDS011;3949;49.254;8.894;2023-08-06T10:04:22;0.30;;;0.30;;
7807;SDS011;3949;49.254;8.894;2023-08-06T10:06:49;0.70;;;0.40;;
7807;SDS011;3949;49.254;8.894;2023-08-06T10:09:15;0.20;;;0.20;;
7807;SDS011;3949;49.254;8.894;2023-08-06T10:11:42;0.77;;;0.30;;
7807;SDS011;3949;49.254;8.894;2023-08-06T10:14:13;0.30;;;0.30;;
7807;SDS011;3949;49.254;8.894;2023-08-06T10:16:40;1.40;;;0.63;;
7807;SDS011;3949;49.254;8.894;2023-08-06T10:19:07;0.60;;;0.30;;
7807;SDS011;3949;49.254;8.894;2023-08-06T10:21:34;0.77;;;0.40;;
7807;SDS011;3949;49.254;8.894;2023-08-06T10:24:00;0.43;;;0.30;;
7807;SDS011;3949;49.254;8.894;2023-08-06T10:26:29;0.40;;;0.40;;
7807;SDS011;3949;49.254;8.894;2023-08-06T10:28:55;0.50;;;0.40;;
7807;SDS011;3949;49.254;8.894;2023-08-06T10:31:52;0.60;;;0.33;;
7807;SDS011;3949;49.254;8.894;2023-08-06T10:34:07;0.47;;;0.47;;
7807;SDS011;3949;49.254;8.894;2023-08-06T10:36:33;0.57;;;0.40;;
7807;SDS011;3949;49.254;8.894;2023-08-06T10:39:04;0.60;;;0.60;;
7807;SDS011;3949;49.254;8.894;2023-08-06T10:41:31;0.57;;;0.50;;
7807;SDS011;3949;49.254;8.894;2023-08-06T10:44:06;0.30;;;0.30;;
7807;SDS011;3949;49.254;8.894;2023-08-06T10:46:33;1.57;;;0.57;;
7807;SDS011;3949;49.254;8.894;2023-08-06T10:48:59;0.40;;;0.40;;
7807;SDS011;3949;49.254;8.894;2023-08-06T10:51:25;0.53;;;0.30;;
7807;SDS011;3949;49.254;8.894;2023-08-06T10:53:52;0.60;;;0.60;;
7807;SDS011;3949;49.254;8.894;2023-08-06T10:56:19;0.53;;;0.50;;
7807;SDS011;3949;49.254;8.894;2023-08-06T10:58:47;0.50;;;0.43;;
7807;SDS011;3949;49.254;8.894;2023-08-06T11:01:16;0.67;;;0.67;;
7807;SDS011;3949;49.254;8.894;2023-08-06T11:03:42;2.00;;;0.97;;
7807;SDS011;3949;49.254;8.894;2023-08-06T11:06:09;0.73;;;0.70;;
7807;SDS011;3949;49.254;8.894;2023-08-06T11:08:36;0.70;;;0.70;;
7807;SDS011;3949;49.254;8.894;2023-08-06T11:13:36;1.07;;;0.60;;
7807;SDS011;3949;49.254;8.894;2023-08-06T11:16:03;1.70;;;0.80;;
7807;SDS011;3949;49.254;8.894;2023-08-06T11:18:29;0.60;;;0.60;;
7807;SDS011;3949;49.254;8.894;2023-08-06T11:20:55;0.80;;;0.80;;
7807;SDS011;3949;49.254;8.894;2023-08-06T11:23:21;0.87;;;0.87;;
7807;SDS011;3949;49.254;8.894;2023-08-06T11:25:47;2.03;;;1.93;;
7807;SDS011;3949;49.254;8.894;2023-08-06T11:28:13;1.13;;;0.93;;
7807;SDS011;3949;49.254;8.894;2023-08-06T11:30:39;1.40;;;1.30;;
7807;SDS011;3949;49.254;8.894;2023-08-06T11:33:07;1.00;;;1.00;;
7807;SDS011;3949;49.254;8.894;2023-08-06T11:35:35;1.10;;;1.00;;
7807;SDS011;3949;49.254;8.894;2023-08-06T11:38:01;1.30;;;1.20;;
7807;SDS011;3949;49.254;8.894;2023-08-06T11:40:27;1.50;;;1.40;;
7807;SDS011;3949;49.254;8.894;2023-08-06T11:42:53;1.30;;;1.20;;
7807;SDS011;3949;49.254;8.894;2023-08-06T11:45:22;1.10;;;1.00;;
7807;SDS011;3949;49.254;8.894;2023-08-06T11:47:53;1.43;;;1.33;;
7807;SDS011;3949;49.254;8.894;2023-08-06T11:50:25;3.67;;;3.30;;
7807;SDS011;3949;49.254;8.894;2023-08-06T11:53:00;1.53;;;1.37;;
7807;SDS011;3949;49.254;8.894;2023-08-06T11:55:27;1.60;;;1.50;;
7807;SDS011;3949;49.254;8.894;2023-08-06T11:57:54;2.90;;;1.70;;
7807;SDS011;3949;49.254;8.894;2023-08-06T12:00:21;1.30;;;1.20;;
7807;SDS011;3949;49.254;8.894;2023-08-06T12:02:48;2.57;;;1.90;;
7807;SDS011;3949;49.254;8.894;2023-08-06T12:07:46;1.60;;;1.50;;
7807;SDS011;3949;49.254;8.894;2023-08-06T12:10:15;3.43;;;1.70;;
7807;SDS011;3949;49.254;8.894;2023-08-06T12:12:41;2.37;;;1.77;;
7807;SDS011;3949;49.254;8.894;2023-08-06T12:15:07;1.77;;;1.67;;
7807;SDS011;3949;49.254;8.894;2023-08-06T12:17:36;2.67;;;1.90;;
7807;SDS011;3949;49.254;8.894;2023-08-06T12:20:03;1.80;;;1.70;;
7807;SDS011;3949;49.254;8.894;2023-08-06T12:22:29;1.70;;;1.60;;
7807;SDS011;3949;49.254;8.894;2023-08-06T12:25:00;2.97;;;1.67;;
7807;SDS011;3949;49.254;8.894;2023-08-06T12:27:26;2.33;;;1.90;;
7807;SDS011;3949;49.254;8.894;2023-08-06T12:29:52;2.00;;;1.80;;
7807;SDS011;3949;49.254;8.894;2023-08-06T12:32:18;2.77;;;1.83;;
7807;SDS011;3949;49.254;8.894;2023-08-06T12:34:44;1.80;;;1.70;;
7807;SDS011;3949;49.254;8.894;2023-08-06T12:37:10;1.90;;;1.70;;
7807;SDS011;3949;49.254;8.894;2023-08-06T12:39:36;1.83;;;1.73;;
7807;SDS011;3949;49.254;8.894;2023-08-06T12:42:02;2.40;;;2.10;;
7807;SDS011;3949;49.254;8.894;2023-08-06T12:44:29;2.30;;;2.10;;
7807;SDS011;3949;49.254;8.894;2023-08-06T12:46:55;2.10;;;1.90;;
7807;SDS011;3949;49.254;8.894;2023-08-06T12:49:21;3.03;;;2.33;;
7807;SDS011;3949;49.254;8.894;2023-08-06T12:51:47;2.73;;;2.30;;
7807;SDS011;3949;49.254;8.894;2023-08-06T12:54:13;3.40;;;2.00;;
7807;SDS011;3949;49.254;8.894;2023-08-06T12:56:39;1.87;;;1.67;;
7807;SDS011;3949;49.254;8.894;2023-08-06T12:59:05;2.53;;;2.30;;
7807;SDS011;3949;49.254;8.894;2023-08-06T13:01:34;2.97;;;2.30;;
7807;SDS011;3949;49.254;8.894;2023-08-06T13:04:00;1.83;;;1.73;;
7807;SDS011;3949;49.254;8.894;2023-08-06T13:06:26;2.43;;;2.10;;
7807;SDS011;3949;49.254;8.894;2023-08-06T13:08:52;3.80;;;2.30;;
7807;SDS011;3949;49.254;8.894;2023-08-06T13:11:18;2.80;;;2.50;;
7807;SDS011;3949;49.254;8.894;2023-08-06T13:13:44;2.20;;;2.00;;
7807;SDS011;3949;49.254;8.894;2023-08-06T13:16:10;2.60;;;2.27;;
7807;SDS011;3949;49.254;8.894;2023-08-06T13:18:36;3.83;;;2.50;;
7807;SDS011;3949;49.254;8.894;2023-08-06T13:21:02;3.73;;;2.40;;
7807;SDS011;3949;49.254;8.894;2023-08-06T13:23:28;2.10;;;1.87;;
7807;SDS011;3949;49.254;8.894;2023-08-06T13:25:54;2.53;;;2.30;;
7807;SDS011;3949;49.254;8.894;2023-08-06T13:28:20;2.63;;;2.03;;
7807;SDS011;3949;49.254;8.894;2023-08-06T13:30:46;3.90;;;2.83;;
7807;SDS011;3949;49.254;8.894;2023-08-06T13:33:12;2.90;;;2.33;;
7807;SDS011;3949;49.254;8.894;2023-08-06T13:35:38;3.80;;;2.30;;
7807;SDS011;3949;49.254;8.894;2023-08-06T13:38:04;3.13;;;2.00;;
7807;SDS011;3949;49.254;8.894;2023-08-06T13:40:32;2.33;;;1.87;;
7807;SDS011;3949;49.254;8.894;2023-08-06T13:42:58;3.03;;;1.90;;
7807;SDS011;3949;49.254;8.894;2023-08-06T13:45:24;3.20;;;2.03;;
7807;SDS011;3949;49.254;8.894;2023-08-06T13:47:53;1.70;;;1.60;;
7807;SDS011;3949;49.254;8.894;2023-08-06T13:50:19;2.13;;;1.67;;
7807;SDS011;3949;49.254;8.894;2023-08-06T13:52:47;2.10;;;1.60;;
7807;SDS011;3949;49.254;8.894;2023-08-06T13:55:13;1.40;;;1.30;;
7807;SDS011;3949;49.254;8.894;2023-08-06T13:57:39;1.97;;;1.37;;
7807;SDS011;3949;49.254;8.894;2023-08-06T14:00:05;1.50;;;1.40;;
7807;SDS011;3949;49.254;8.894;2023-08-06T14:02:31;2.53;;;1.50;;
7807;SDS011;3949;49.254;8.894;2023-08-06T14:04:57;1.57;;;1.47;;
7807;SDS011;3949;49.254;8.894;2023-08-06T14:07:23;2.17;;;1.60;;
7807;SDS011;3949;49.254;8.894;2023-08-06T14:09:49;2.10;;;1.90;;
7807;SDS011;3949;49.254;8.894;2023-08-06T14:12:15;1.93;;;1.80;;
7807;SDS011;3949;49.254;8.894;2023-08-06T14:14:41;1.93;;;1.70;;
7807;SDS011;3949;49.254;8.894;2023-08-06T14:17:08;2.43;;;1.57;;
7807;SDS011;3949;49.254;8.894;2023-08-06T14:19:34;1.67;;;1.53;;
7807;SDS011;3949;49.254;8.894;2023-08-06T14:21:59;2.60;;;1.57;;
7807;SDS011;3949;49.254;8.894;2023-08-06T14:24:25;1.90;;;1.23;;
7807;SDS011;3949;49.254;8.894;2023-08-06T14:26:51;1.93;;;1.40;;
7807;SDS011;3949;49.254;8.894;2023-08-06T14:29:18;1.83;;;1.30;;
7807;SDS011;3949;49.254;8.894;2023-08-06T14:31:44;1.17;;;1.07;;
7807;SDS011;3949;49.254;8.894;2023-08-06T14:34:10;1.27;;;1.17;;
7807;SDS011;3949;49.254;8.894;2023-08-06T14:36:36;2.37;;;1.57;;
7807;SDS011;3949;49.254;8.894;2023-08-06T14:39:02;1.70;;;1.60;;
7807;SDS011;3949;49.254;8.894;2023-08-06T14:41:28;5.57;;;4.03;;
7807;SDS011;3949;49.254;8.894;2023-08-06T14:43:56;1.77;;;1.67;;
7807;SDS011;3949;49.254;8.894;2023-08-06T14:46:25;1.60;;;1.50;;
7807;SDS011;3949;49.254;8.894;2023-08-06T14:48:51;4.83;;;3.40;;
7807;SDS011;3949;49.254;8.894;2023-08-06T14:51:17;2.10;;;1.90;;
7807;SDS011;3949;49.254;8.894;2023-08-06T14:53:46;1.83;;;1.73;;
7807;SDS011;3949;49.254;8.894;2023-08-06T14:56:12;1.53;;;1.40;;
7807;SDS011;3949;49.254;8.894;2023-08-06T14:58:38;2.57;;;1.73;;
7807;SDS011;3949;49.254;8.894;2023-08-06T15:01:04;1.50;;;1.30;;
7807;SDS011;3949;49.254;8.894;2023-08-06T15:03:30;1.43;;;1.30;;
7807;SDS011;3949;49.254;8.894;2023-08-06T15:05:59;1.60;;;1.50;;
7807;SDS011;3949;49.254;8.894;2023-08-06T15:08:25;1.80;;;1.53;;
7807;SDS011;3949;49.254;8.894;2023-08-06T15:10:51;0.90;;;0.90;;
7807;SDS011;3949;49.254;8.894;2023-08-06T15:13:18;1.80;;;1.40;;
7807;SDS011;3949;49.254;8.894;2023-08-06T15:15:46;2.27;;;1.33;;
7807;SDS011;3949;49.254;8.894;2023-08-06T15:18:12;1.40;;;1.30;;
7807;SDS011;3949;49.254;8.894;2023-08-06T15:20:38;1.60;;;1.50;;
7807;SDS011;3949;49.254;8.894;2023-08-06T15:23:06;1.50;;;1.40;;